Time;durP1;ratioP1;P1;durP2;ratioP2;P2;SDS_P1;SDS_P2;PMS_P1;PMS_P2;Temp;Humidity;BMP_temperature;BMP_pressure;BME280_temperature;BME280_humidity;BME280_pressure;Samples;Min_cycle;Max_cycle;Signal;HPM_P1;HPM_P2
2022/11/17 00:01:50;;;;;;;;;;;20.30;89.40;;;;;;5094586;28;20387;-39
2022/11/17 00:04:15;;;;;;;;;;;20.30;89.30;;;;;;5094452;28;19909;-39
2022/11/17 00:06:41;;;;;;;;;;;20.40;89.20;;;;;;5094127;28;19916;-39
2022/11/17 00:09:10;;;;;;;;;;;20.40;89.00;;;;;;5103598;28;20011;-40
2022/11/17 00:14:32;;;;;;;;;;;20.60;88.70;;;;;;5094398;28;20286;-40
2022/11/17 00:16:58;;;;;;;;;;;20.70;88.40;;;;;;5094156;28;19939;-40
2022/11/17 00:22:08;;;;;;;;;;;20.90;88.00;;;;;;5092870;28;20377;-40
2022/11/17 00:24:33;;;;;;;;;;;20.90;87.90;;;;;;5096475;28;20006;-40
2022/11/17 00:27:02;;;;;;;;;;;20.90;87.90;;;;;;5098255;28;19908;-40
2022/11/17 00:29:28;;;;;;;;;;;20.80;88.00;;;;;;5076260;28;20264;-40
2022/11/17 00:34:37;;;;;;;;;;;20.70;88.40;;;;;;5094237;28;19930;-39
2022/11/17 00:37:03;;;;;;;;;;;20.50;88.70;;;;;;5093966;28;19912;-39
2022/11/17 00:39:29;;;;;;;;;;;20.50;89.00;;;;;;5081622;28;19970;-39
2022/11/17 00:41:54;;;;;;;;;;;20.40;89.30;;;;;;5100712;28;19950;-39
2022/11/17 00:44:20;;;;;;;;;;;20.40;89.50;;;;;;5085362;28;19995;-39
2022/11/17 00:46:46;;;;;;;;;;;20.30;89.60;;;;;;5094039;28;19915;-39
2022/11/17 00:49:11;;;;;;;;;;;20.30;89.70;;;;;;5093888;28;20419;-39
2022/11/17 00:51:37;;;;;;;;;;;20.30;89.60;;;;;;5093951;28;19958;-40
2022/11/17 00:54:03;;;;;;;;;;;20.40;89.50;;;;;;5093961;28;19912;-40
2022/11/17 00:56:29;;;;;;;;;;;20.50;89.40;;;;;;5091674;28;19908;-39
2022/11/17 00:58:54;;;;;;;;;;;20.60;89.00;;;;;;5082057;28;19915;-39
2022/11/17 01:01:20;;;;;;;;;;;20.70;88.70;;;;;;5096050;28;19913;-39
2022/11/17 01:03:46;;;;;;;;;;;20.90;88.50;;;;;;5097599;28;20317;-39
2022/11/17 01:06:13;;;;;;;;;;;20.90;88.20;;;;;;5097925;28;19908;-39
2022/11/17 01:08:39;;;;;;;;;;;21.00;88.00;;;;;;5097397;28;20033;-39
2022/11/17 01:11:09;;;;;;;;;;;21.00;87.90;;;;;;5097452;28;19929;-40
2022/11/17 01:13:37;;;;;;;;;;;21.00;87.80;;;;;;5092171;28;20315;-40
2022/11/17 01:16:04;;;;;;;;;;;21.00;87.90;;;;;;5088552;28;20282;-41
2022/11/17 01:18:29;;;;;;;;;;;20.90;88.10;;;;;;5096552;28;19908;-41
2022/11/17 01:20:55;;;;;;;;;;;20.80;88.20;;;;;;5097305;28;19958;-41
2022/11/17 01:23:20;;;;;;;;;;;20.70;88.40;;;;;;5095345;28;19916;-40
2022/11/17 01:25:46;;;;;;;;;;;20.60;87.50;;;;;;5090672;28;19995;-40
2022/11/17 01:28:11;;;;;;;;;;;20.50;88.30;;;;;;5077126;28;19917;-42
2022/11/17 01:30:36;;;;;;;;;;;20.40;88.80;;;;;;5076375;28;20361;-41
2022/11/17 01:33:02;;;;;;;;;;;20.40;89.10;;;;;;5076488;28;19920;-40
2022/11/17 01:35:27;;;;;;;;;;;20.50;89.70;;;;;;5077411;28;19909;-40
2022/11/17 01:37:53;;;;;;;;;;;20.50;89.00;;;;;;5076728;28;20291;-40
2022/11/17 01:40:18;;;;;;;;;;;20.70;88.90;;;;;;5076674;28;19919;-40
2022/11/17 01:42:44;;;;;;;;;;;20.80;88.60;;;;;;5076974;28;19975;-40
2022/11/17 01:45:12;;;;;;;;;;;21.00;88.10;;;;;;5058638;28;19969;-40
2022/11/17 01:47:43;;;;;;;;;;;21.20;87.60;;;;;;5076886;28;19915;-40
2022/11/17 01:50:29;;;;;;;;;;;21.40;87.20;;;;;;5076848;28;19915;-40
2022/11/17 01:52:56;;;;;;;;;;;21.40;87.40;;;;;;5068866;28;20316;-40
2022/11/17 01:55:23;;;;;;;;;;;21.40;86.80;;;;;;5076429;28;19955;-40
2022/11/17 01:57:52;;;;;;;;;;;21.30;86.80;;;;;;5076668;28;19908;-40
2022/11/17 02:00:17;;;;;;;;;;;21.20;87.00;;;;;;5076548;28;19912;-39
2022/11/17 02:02:43;;;;;;;;;;;21.20;87.20;;;;;;5076603;28;19969;-40
2022/11/17 02:05:09;;;;;;;;;;;21.00;87.40;;;;;;5076538;28;19954;-40
2022/11/17 02:07:36;;;;;;;;;;;20.90;87.70;;;;;;5076418;28;19921;-40
2022/11/17 02:10:02;;;;;;;;;;;20.80;88.10;;;;;;5076218;28;20275;-41
2022/11/17 02:12:29;;;;;;;;;;;20.70;88.30;;;;;;5075423;28;19913;-40
2022/11/17 02:14:55;;;;;;;;;;;20.70;88.50;;;;;;5076377;28;19987;-40
2022/11/17 02:17:22;;;;;;;;;;;20.80;88.50;;;;;;5075985;28;19950;-39
2022/11/17 02:19:55;;;;;;;;;;;20.90;88.40;;;;;;5076170;28;19912;-39
2022/11/17 02:22:20;;;;;;;;;;;21.20;88.00;;;;;;5076030;28;19917;-39
2022/11/17 02:25:03;;;;;;;;;;;21.50;87.30;;;;;;5091755;28;19915;-39
2022/11/17 02:27:47;;;;;;;;;;;21.80;86.30;;;;;;5076258;28;19916;-39
2022/11/17 02:30:14;;;;;;;;;;;22.00;85.80;;;;;;5076083;28;19983;-39
2022/11/17 02:32:49;;;;;;;;;;;22.10;85.30;;;;;;5076055;28;19909;-39
2022/11/17 02:35:20;;;;;;;;;;;22.10;85.20;;;;;;5076270;28;19909;-39
2022/11/17 02:37:50;;;;;;;;;;;22.00;85.30;;;;;;5075888;28;20004;-39
2022/11/17 02:40:26;;;;;;;;;;;21.90;85.50;;;;;;5076081;28;20033;-38
2022/11/17 02:45:57;;;;;;;;;;;21.60;86.10;;;;;;5075617;28;19916;-39
2022/11/17 02:48:26;;;;;;;;;;;21.50;86.50;;;;;;5075691;28;19912;-39
2022/11/17 02:50:52;;;;;;;;;;;21.30;86.90;;;;;;5075353;28;19909;-39
2022/11/17 02:53:18;;;;;;;;;;;21.10;87.30;;;;;;5075676;28;19908;-39
2022/11/17 02:55:48;;;;;;;;;;;21.00;87.70;;;;;;5075547;28;19908;-39
2022/11/17 02:58:13;;;;;;;;;;;20.90;88.10;;;;;;5075588;28;19913;-40
2022/11/17 03:00:44;;;;;;;;;;;20.80;88.40;;;;;;5075391;28;20270;-40
2022/11/17 03:03:09;;;;;;;;;;;20.70;88.60;;;;;;5075207;28;19962;-40
2022/11/17 03:05:35;;;;;;;;;;;20.70;88.60;;;;;;5075377;28;20293;-40
2022/11/17 03:08:03;;;;;;;;;;;20.80;88.50;;;;;;5074987;28;19927;-40
2022/11/17 03:10:35;;;;;;;;;;;21.00;88.30;;;;;;5075373;28;20003;-40
2022/11/17 03:13:12;;;;;;;;;;;21.10;87.90;;;;;;5074937;28;19915;-39
2022/11/17 03:15:44;;;;;;;;;;;21.30;87.50;;;;;;5074930;28;20007;-40
2022/11/17 03:18:13;;;;;;;;;;;21.40;87.10;;;;;;5075217;28;19947;-39
2022/11/17 03:20:48;;;;;;;;;;;21.50;86.90;;;;;;5074552;28;20390;-39
2022/11/17 03:23:17;;;;;;;;;;;21.50;86.80;;;;;;5074566;28;20023;-40
2022/11/17 03:25:45;;;;;;;;;;;21.50;86.90;;;;;;5074967;28;19909;-40
2022/11/17 03:28:11;;;;;;;;;;;21.40;86.90;;;;;;5074912;28;19916;-39
2022/11/17 03:30:38;;;;;;;;;;;21.30;87.20;;;;;;5074655;28;19909;-40
2022/11/17 03:33:06;;;;;;;;;;;21.20;87.40;;;;;;5074835;28;20007;-43
2022/11/17 03:35:33;;;;;;;;;;;21.10;87.80;;;;;;5074785;28;20271;-40
2022/11/17 03:38:02;;;;;;;;;;;21.00;88.10;;;;;;5074532;28;19909;-40
2022/11/17 03:40:29;;;;;;;;;;;20.90;88.30;;;;;;5074271;28;19912;-40
2022/11/17 03:42:57;;;;;;;;;;;20.80;88.60;;;;;;5056736;28;20410;-40
2022/11/17 03:45:25;;;;;;;;;;;20.70;88.90;;;;;;5074587;28;20058;-40
2022/11/17 03:47:53;;;;;;;;;;;20.60;89.10;;;;;;5074254;28;20279;-40
2022/11/17 03:50:26;;;;;;;;;;;20.60;89.30;;;;;;5074559;28;19916;-40
2022/11/17 03:52:52;;;;;;;;;;;20.50;89.40;;;;;;5073908;28;19995;-40
2022/11/17 03:55:17;;;;;;;;;;;20.60;89.50;;;;;;5074175;28;20001;-40
2022/11/17 03:57:47;;;;;;;;;;;20.60;89.40;;;;;;5056460;28;19919;-40
2022/11/17 04:00:15;;;;;;;;;;;20.80;89.20;;;;;;5074252;28;19912;-40
2022/11/17 04:02:42;;;;;;;;;;;21.00;88.80;;;;;;5074037;28;19913;-40
2022/11/17 04:05:08;;;;;;;;;;;21.20;88.10;;;;;;5074232;28;19912;-40
2022/11/17 04:07:41;;;;;;;;;;;21.40;87.70;;;;;;5074200;28;20011;-42
2022/11/17 04:10:08;;;;;;;;;;;21.50;87.30;;;;;;5073822;28;20007;-40
2022/11/17 04:18:02;;;;;;;;;;;21.30;87.20;;;;;;5073948;28;19970;-39
2022/11/17 04:20:34;;;;;;;;;;;21.30;87.40;;;;;;5073712;28;19926;-40
2022/11/17 04:23:06;;;;;;;;;;;21.10;87.50;;;;;;5073980;28;19929;-40
2022/11/17 04:28:37;;;;;;;;;;;20.90;88.00;;;;;;5074167;28;19914;-40
2022/11/17 04:31:03;;;;;;;;;;;20.80;88.30;;;;;;5074143;28;19918;-40
2022/11/17 04:33:28;;;;;;;;;;;20.70;88.60;;;;;;5073615;28;19908;-40
2022/11/17 04:35:54;;;;;;;;;;;20.60;88.80;;;;;;5073027;28;19926;-40
2022/11/17 04:38:19;;;;;;;;;;;20.60;89.10;;;;;;5073973;28;20008;-40
2022/11/17 04:41:52;;;;;;;;;;;20.50;89.20;;;;;;5073643;28;19944;-40
2022/11/17 04:43:30;;;;;;;;;;;20.50;89.40;;;;;;5073832;28;19913;-40
2022/11/17 04:45:59;;;;;;;;;;;20.40;89.50;;;;;;5073933;28;20263;-40
2022/11/17 04:48:25;;;;;;;;;;;20.40;89.60;;;;;;5073820;28;19912;-40
2022/11/17 04:50:54;;;;;;;;;;;20.40;89.70;;;;;;5073508;28;20367;-41
2022/11/17 04:53:20;;;;;;;;;;;20.40;89.70;;;;;;5073838;28;20239;-40
2022/11/17 04:55:46;;;;;;;;;;;20.40;89.70;;;;;;5073498;28;19987;-40
2022/11/17 04:58:11;;;;;;;;;;;20.50;89.80;;;;;;5073526;28;19934;-40
2022/11/17 05:00:37;;;;;;;;;;;20.50;89.80;;;;;;5073824;28;19912;-40
2022/11/17 05:03:02;;;;;;;;;;;20.60;89.70;;;;;;5074064;28;20286;-40
2022/11/17 05:05:28;;;;;;;;;;;20.60;89.50;;;;;;5073403;28;20050;-40
2022/11/17 05:07:53;;;;;;;;;;;20.70;89.40;;;;;;5073578;28;19920;-40
2022/11/17 05:13:21;;;;;;;;;;;21.00;89.00;;;;;;5073216;28;19936;-40
2022/11/17 05:18:31;;;;;;;;;;;21.20;88.30;;;;;;5073349;28;19916;-40
2022/11/17 05:21:04;;;;;;;;;;;21.30;88.00;;;;;;5073019;28;19912;-40
2022/11/17 05:26:15;;;;;;;;;;;21.20;87.70;;;;;;5073242;28;19916;-40
2022/11/17 05:28:40;;;;;;;;;;;21.20;87.90;;;;;;5073138;28;19909;-40
2022/11/17 05:31:06;;;;;;;;;;;21.10;88.10;;;;;;5073692;28;19908;-40
2022/11/17 05:33:31;;;;;;;;;;;21.00;88.30;;;;;;5073282;28;19912;-40
2022/11/17 05:35:57;;;;;;;;;;;21.00;88.60;;;;;;5073312;28;19909;-40
2022/11/17 05:38:22;;;;;;;;;;;20.90;88.90;;;;;;5076992;28;20494;-40
2022/11/17 05:40:47;;;;;;;;;;;20.80;89.10;;;;;;5093172;28;19915;-49
2022/11/17 05:43:13;;;;;;;;;;;20.80;89.30;;;;;;5104529;28;19963;-47
2022/11/17 05:45:38;;;;;;;;;;;20.80;88.80;;;;;;5109840;28;19916;-48
2022/11/17 05:48:04;;;;;;;;;;;20.90;88.90;;;;;;5109698;28;19914;-47
2022/11/17 05:50:29;;;;;;;;;;;20.80;89.70;;;;;;5093912;28;19916;-47
2022/11/17 05:52:55;;;;;;;;;;;20.70;89.30;;;;;;5107582;28;19907;-46
2022/11/17 05:55:20;;;;;;;;;;;20.70;89.60;;;;;;5102433;28;19956;-45
2022/11/17 05:57:46;;;;;;;;;;;20.70;90.00;;;;;;5106535;28;20355;-45
2022/11/17 06:00:12;;;;;;;;;;;20.60;89.90;;;;;;5116071;28;19924;-46
2022/11/17 06:02:42;;;;;;;;;;;20.60;89.80;;;;;;5113032;28;19912;-48
2022/11/17 06:05:08;;;;;;;;;;;20.60;90.20;;;;;;5113399;28;19911;-46
2022/11/17 06:07:35;;;;;;;;;;;20.50;90.10;;;;;;5095348;28;19920;-48
2022/11/17 06:10:00;;;;;;;;;;;20.40;90.20;;;;;;5095507;28;19908;-46
2022/11/17 06:12:25;;;;;;;;;;;20.40;90.20;;;;;;5100366;28;20354;-48
2022/11/17 06:14:51;;;;;;;;;;;20.30;90.00;;;;;;5109144;28;20350;-47
2022/11/17 06:17:21;;;;;;;;;;;20.30;90.00;;;;;;5116358;28;19930;-44
2022/11/17 06:19:48;;;;;;;;;;;20.20;90.00;;;;;;5098279;28;19912;-46
2022/11/17 06:22:14;;;;;;;;;;;20.20;90.10;;;;;;5116658;28;20006;-45
2022/11/17 06:24:40;;;;;;;;;;;20.20;90.20;;;;;;5116378;28;19929;-45
2022/11/17 06:27:06;;;;;;;;;;;20.10;90.20;;;;;;5116098;28;19914;-44
2022/11/17 06:29:31;;;;;;;;;;;20.10;90.20;;;;;;5116343;28;20392;-48
2022/11/17 06:31:57;;;;;;;;;;;20.10;90.50;;;;;;5116387;28;20006;-45
2022/11/17 06:34:26;;;;;;;;;;;20.00;90.30;;;;;;5115943;28;19911;-45
2022/11/17 06:36:52;;;;;;;;;;;20.00;90.30;;;;;;5116141;28;19995;-48
2022/11/17 06:39:18;;;;;;;;;;;20.00;90.30;;;;;;5115807;28;19969;-49
2022/11/17 06:41:43;;;;;;;;;;;20.00;90.40;;;;;;5116015;28;19938;-47
2022/11/17 06:44:09;;;;;;;;;;;19.90;90.30;;;;;;5116037;28;20362;-47
2022/11/17 06:46:37;;;;;;;;;;;19.90;90.40;;;;;;5115710;28;19935;-47
2022/11/17 06:49:03;;;;;;;;;;;19.90;90.50;;;;;;5115440;28;19908;-45
2022/11/17 06:51:29;;;;;;;;;;;19.80;90.40;;;;;;5115488;28;19934;-45
2022/11/17 06:53:54;;;;;;;;;;;19.80;90.40;;;;;;5115644;28;19912;-47
2022/11/17 06:56:19;;;;;;;;;;;19.80;90.40;;;;;;5097264;28;19908;-47
2022/11/17 06:58:45;;;;;;;;;;;19.80;90.50;;;;;;5096967;28;19908;-49
2022/11/17 07:01:11;;;;;;;;;;;19.70;90.40;;;;;;5115634;28;19912;-50
2022/11/17 07:03:37;;;;;;;;;;;19.70;90.50;;;;;;5115594;28;19912;-48
2022/11/17 07:06:04;;;;;;;;;;;19.70;90.50;;;;;;5115412;28;19920;-45
2022/11/17 07:08:30;;;;;;;;;;;19.70;90.50;;;;;;5097140;28;19935;-45
2022/11/17 07:11:00;;;;;;;;;;;19.70;90.50;;;;;;5097057;28;19907;-46
2022/11/17 07:13:25;;;;;;;;;;;19.70;90.60;;;;;;5097203;28;20291;-45
2022/11/17 07:15:51;;;;;;;;;;;19.60;90.60;;;;;;5115016;28;19915;-49
2022/11/17 07:18:20;;;;;;;;;;;19.60;90.60;;;;;;5115351;28;20007;-50
2022/11/17 07:20:46;;;;;;;;;;;19.60;90.70;;;;;;5115169;28;19911;-46
2022/11/17 07:23:11;;;;;;;;;;;19.60;90.70;;;;;;5096993;28;19916;-46
2022/11/17 07:25:37;;;;;;;;;;;19.60;90.70;;;;;;5115318;28;19961;-48
2022/11/17 07:28:03;;;;;;;;;;;19.60;90.70;;;;;;5115227;28;20315;-50
2022/11/17 07:30:28;;;;;;;;;;;19.50;90.60;;;;;;5115264;28;20342;-50
2022/11/17 07:32:54;;;;;;;;;;;19.50;90.70;;;;;;5114870;28;20343;-48
2022/11/17 07:35:19;;;;;;;;;;;19.50;90.70;;;;;;5114958;28;20350;-47
2022/11/17 07:37:45;;;;;;;;;;;19.50;90.80;;;;;;5096817;28;19908;-46
2022/11/17 07:40:10;;;;;;;;;;;19.50;90.80;;;;;;5114875;28;19965;-47
2022/11/17 07:42:36;;;;;;;;;;;19.40;90.80;;;;;;5114431;28;19912;-49
2022/11/17 07:45:01;;;;;;;;;;;19.50;90.80;;;;;;5096376;28;19915;-49
2022/11/17 07:47:27;;;;;;;;;;;19.40;90.80;;;;;;5114486;28;20003;-47
2022/11/17 07:49:52;;;;;;;;;;;19.40;90.80;;;;;;5114713;28;19918;-49
2022/11/17 07:52:18;;;;;;;;;;;19.40;90.80;;;;;;5114522;28;20370;-45
2022/11/17 07:54:43;;;;;;;;;;;19.40;90.90;;;;;;5114780;28;19915;-47
2022/11/17 07:57:09;;;;;;;;;;;19.30;90.90;;;;;;5114576;28;19965;-50
2022/11/17 07:59:34;;;;;;;;;;;19.30;90.90;;;;;;5114472;28;19912;-47
2022/11/17 08:02:00;;;;;;;;;;;19.30;90.90;;;;;;5114082;28;20045;-45
2022/11/17 08:04:25;;;;;;;;;;;19.30;90.90;;;;;;5114255;28;20341;-45
2022/11/17 08:06:51;;;;;;;;;;;19.30;91.00;;;;;;5114156;28;19961;-50
2022/11/17 08:09:16;;;;;;;;;;;19.30;90.90;;;;;;5114572;28;19920;-46
2022/11/17 08:11:42;;;;;;;;;;;19.20;91.00;;;;;;5113699;28;19908;-49
2022/11/17 08:14:07;;;;;;;;;;;19.20;91.00;;;;;;5114254;28;19930;-45
2022/11/17 08:16:33;;;;;;;;;;;19.20;91.00;;;;;;5114373;28;20358;-48
2022/11/17 08:18:58;;;;;;;;;;;19.20;91.00;;;;;;5114389;28;19916;-48
2022/11/17 08:21:24;;;;;;;;;;;19.20;91.00;;;;;;5113903;28;20019;-47
2022/11/17 08:23:51;;;;;;;;;;;19.10;91.00;;;;;;5114111;28;19911;-47
2022/11/17 08:26:16;;;;;;;;;;;19.10;91.00;;;;;;5114761;28;19954;-48
2022/11/17 08:28:42;;;;;;;;;;;19.10;91.30;;;;;;5096027;28;19978;-47
2022/11/17 08:31:07;;;;;;;;;;;19.00;91.00;;;;;;5114113;28;19919;-45
2022/11/17 08:33:33;;;;;;;;;;;19.00;91.00;;;;;;5095865;28;19994;-47
2022/11/17 08:35:59;;;;;;;;;;;19.00;91.00;;;;;;5114122;28;20291;-44
2022/11/17 08:38:28;;;;;;;;;;;19.00;91.00;;;;;;5113967;28;19954;-45
2022/11/17 08:41:04;;;;;;;;;;;19.00;91.10;;;;;;5113961;28;19916;-45
2022/11/17 08:43:29;;;;;;;;;;;19.00;91.10;;;;;;5114128;28;19912;-48
2022/11/17 08:45:55;;;;;;;;;;;18.90;91.10;;;;;;5114138;28;20054;-45
2022/11/17 08:48:20;;;;;;;;;;;18.90;91.10;;;;;;5095965;28;19914;-45
2022/11/17 08:50:46;;;;;;;;;;;18.90;91.10;;;;;;5114066;28;19908;-46
2022/11/17 08:53:16;;;;;;;;;;;18.90;91.20;;;;;;5114188;28;19908;-48
2022/11/17 08:55:42;;;;;;;;;;;18.90;91.20;;;;;;5113785;28;20347;-47
2022/11/17 08:58:07;;;;;;;;;;;18.80;91.20;;;;;;5113889;28;19987;-46
2022/11/17 09:00:33;;;;;;;;;;;18.80;91.20;;;;;;5113933;28;20354;-46
2022/11/17 09:02:58;;;;;;;;;;;18.80;91.20;;;;;;5113803;28;19911;-45
2022/11/17 09:05:24;;;;;;;;;;;18.80;91.50;;;;;;5113470;28;19912;-43
2022/11/17 09:07:50;;;;;;;;;;;18.80;91.30;;;;;;5113705;28;19943;-48
2022/11/17 09:10:16;;;;;;;;;;;18.80;91.30;;;;;;5095762;28;19961;-46
2022/11/17 09:12:41;;;;;;;;;;;18.70;91.30;;;;;;5113605;28;19908;-47
2022/11/17 09:15:07;;;;;;;;;;;18.70;91.30;;;;;;5095569;28;19907;-45
2022/11/17 09:17:32;;;;;;;;;;;18.70;91.30;;;;;;5113529;28;19915;-43
2022/11/17 09:19:58;;;;;;;;;;;18.70;91.30;;;;;;5113298;28;19912;-46
2022/11/17 09:22:23;;;;;;;;;;;18.70;91.30;;;;;;5115989;28;19969;-47
2022/11/17 09:24:49;;;;;;;;;;;18.70;91.30;;;;;;5118080;28;19908;-46
2022/11/17 09:27:14;;;;;;;;;;;18.60;91.30;;;;;;5117672;28;19908;-46
2022/11/17 09:29:40;;;;;;;;;;;18.60;91.30;;;;;;5117576;28;20335;-47
2022/11/17 09:32:05;;;;;;;;;;;18.60;91.30;;;;;;5117675;28;20417;-46
2022/11/17 09:34:31;;;;;;;;;;;18.60;91.40;;;;;;5117565;28;20248;-46
2022/11/17 09:36:56;;;;;;;;;;;18.60;91.30;;;;;;5099233;28;19916;-45
2022/11/17 09:39:22;;;;;;;;;;;18.60;91.30;;;;;;5116882;28;20282;-45
2022/11/17 09:41:49;;;;;;;;;;;18.60;91.40;;;;;;5117272;28;20052;-45
2022/11/17 09:44:30;;;;;;;;;;;18.60;91.50;;;;;;5117287;28;19911;-45
2022/11/17 09:47:14;;;;;;;;;;;18.50;91.50;;;;;;5116998;28;19994;-47
2022/11/17 09:49:57;;;;;;;;;;;18.50;91.50;;;;;;5117078;28;19908;-47
2022/11/17 09:52:33;;;;;;;;;;;18.50;91.50;;;;;;5116802;28;19912;-48
2022/11/17 09:55:08;;;;;;;;;;;18.50;91.50;;;;;;5117479;28;19908;-45
2022/11/17 09:57:46;;;;;;;;;;;18.50;91.50;;;;;;5116963;28;19931;-47
2022/11/17 10:00:13;;;;;;;;;;;18.50;91.60;;;;;;5117012;28;20010;-45
2022/11/17 10:02:39;;;;;;;;;;;18.50;91.60;;;;;;5116809;28;19912;-46
2022/11/17 10:05:05;;;;;;;;;;;18.50;91.60;;;;;;5117267;28;19940;-47
2022/11/17 10:07:32;;;;;;;;;;;18.40;91.60;;;;;;5116494;28;19919;-47
2022/11/17 10:09:59;;;;;;;;;;;18.40;91.60;;;;;;5117093;28;19912;-47
2022/11/17 10:12:29;;;;;;;;;;;18.40;91.60;;;;;;5116704;28;20331;-44
2022/11/17 10:14:56;;;;;;;;;;;18.40;91.60;;;;;;5116557;28;19908;-47
2022/11/17 10:17:21;;;;;;;;;;;18.40;91.60;;;;;;5098362;28;20354;-47
2022/11/17 10:19:46;;;;;;;;;;;18.40;91.70;;;;;;5098312;28;19942;-46
2022/11/17 10:22:18;;;;;;;;;;;18.40;91.70;;;;;;5116324;28;19911;-45
2022/11/17 10:24:49;;;;;;;;;;;18.40;91.70;;;;;;5116733;28;19918;-47
2022/11/17 10:27:31;;;;;;;;;;;18.30;91.70;;;;;;5116093;28;19919;-45
2022/11/17 10:30:05;;;;;;;;;;;18.30;91.70;;;;;;5116384;28;19907;-46
2022/11/17 10:32:35;;;;;;;;;;;18.30;91.70;;;;;;5116444;28;19912;-46
2022/11/17 10:35:14;;;;;;;;;;;18.30;91.70;;;;;;5115410;28;20386;-49
2022/11/17 10:37:42;;;;;;;;;;;18.30;91.70;;;;;;5116240;28;20045;-49
2022/11/17 10:40:14;;;;;;;;;;;18.30;91.70;;;;;;5115851;28;19977;-49
2022/11/17 10:42:40;;;;;;;;;;;18.20;91.70;;;;;;5116310;28;20412;-45
2022/11/17 10:45:14;;;;;;;;;;;18.20;91.80;;;;;;5115823;28;19907;-46
2022/11/17 10:47:40;;;;;;;;;;;18.20;91.80;;;;;;5116167;28;19908;-50
2022/11/17 10:50:18;;;;;;;;;;;18.20;91.80;;;;;;5115635;28;20411;-48
2022/11/17 10:52:43;;;;;;;;;;;18.20;91.80;;;;;;5097735;28;20331;-46
2022/11/17 10:55:30;;;;;;;;;;;18.20;91.80;;;;;;5097371;28;19908;-48
2022/11/17 10:58:28;;;;;;;;;;;18.20;91.80;;;;;;5116103;28;19912;-45
2022/11/17 11:00:55;;;;;;;;;;;18.20;91.80;;;;;;5059320;28;19920;-45
2022/11/17 11:03:22;;;;;;;;;;;18.20;91.90;;;;;;5115892;28;19908;-46
2022/11/17 11:05:55;;;;;;;;;;;18.10;91.80;;;;;;5115690;28;19999;-45
2022/11/17 11:08:22;;;;;;;;;;;18.10;91.90;;;;;;5115670;28;19923;-45
2022/11/17 11:10:50;;;;;;;;;;;18.10;91.90;;;;;;5116061;28;19911;-47
2022/11/17 11:13:31;;;;;;;;;;;18.10;91.90;;;;;;5115580;28;20331;-46
2022/11/17 11:15:56;;;;;;;;;;;18.10;91.90;;;;;;5115130;28;20003;-47
2022/11/17 11:18:22;;;;;;;;;;;18.10;91.90;;;;;;5115605;28;20359;-46
2022/11/17 11:20:50;;;;;;;;;;;18.10;91.90;;;;;;5114861;28;19911;-44
2022/11/17 11:23:31;;;;;;;;;;;18.10;91.90;;;;;;5115067;28;20445;-45
2022/11/17 11:26:06;;;;;;;;;;;18.10;91.90;;;;;;5115315;28;19908;-43
2022/11/17 11:28:31;;;;;;;;;;;18.10;91.90;;;;;;5115050;28;19953;-44
2022/11/17 11:31:20;;;;;;;;;;;18.00;92.00;;;;;;5114965;28;19912;-48
2022/11/17 11:34:04;;;;;;;;;;;18.00;92.00;;;;;;5067273;28;20338;-46
2022/11/17 11:36:41;;;;;;;;;;;18.00;92.00;;;;;;5115087;28;19908;-48
2022/11/17 11:39:07;;;;;;;;;;;18.00;92.00;;;;;;5114423;28;19932;-47
2022/11/17 11:41:47;;;;;;;;;;;18.00;92.00;;;;;;5114571;28;19911;-45
2022/11/17 11:44:31;;;;;;;;;;;18.00;92.00;;;;;;5115107;28;19916;-45
2022/11/17 11:47:15;;;;;;;;;;;18.00;92.00;;;;;;5114639;28;19908;-48
2022/11/17 11:49:44;;;;;;;;;;;17.90;92.00;;;;;;5114733;28;19908;-45
2022/11/17 11:52:26;;;;;;;;;;;17.90;92.00;;;;;;5114839;28;20309;-49
2022/11/17 11:54:59;;;;;;;;;;;18.00;92.00;;;;;;5114531;28;19954;-47
2022/11/17 11:57:27;;;;;;;;;;;17.90;92.00;;;;;;5114636;28;19915;-45
2022/11/17 11:59:57;;;;;;;;;;;17.90;92.00;;;;;;5114358;28;19915;-48
2022/11/17 12:02:41;;;;;;;;;;;17.90;92.10;;;;;;5114489;28;20354;-47
2022/11/17 12:05:20;;;;;;;;;;;17.90;92.10;;;;;;5114445;28;20307;-45
2022/11/17 12:07:49;;;;;;;;;;;17.80;92.10;;;;;;5114453;28;19915;-46
2022/11/17 12:10:19;;;;;;;;;;;17.80;92.10;;;;;;5114614;28;20350;-46
2022/11/17 12:12:45;;;;;;;;;;;17.80;92.10;;;;;;5114770;28;19908;-48
2022/11/17 12:15:29;;;;;;;;;;;17.80;92.10;;;;;;5114546;28;19915;-49
2022/11/17 12:17:59;;;;;;;;;;;17.80;92.10;;;;;;5114191;28;19950;-49
2022/11/17 12:20:37;;;;;;;;;;;17.90;92.10;;;;;;5114282;28;20022;-48
2022/11/17 12:23:05;;;;;;;;;;;17.80;92.10;;;;;;5114209;28;20362;-49
2022/11/17 12:25:32;;;;;;;;;;;17.80;92.10;;;;;;5113956;28;20010;-47
2022/11/17 12:28:16;;;;;;;;;;;17.80;92.10;;;;;;5113824;28;19914;-47
2022/11/17 12:30:42;;;;;;;;;;;17.70;92.30;;;;;;5114272;28;19991;-50
2022/11/17 12:33:07;;;;;;;;;;;17.70;92.10;;;;;;5114138;28;19951;-49
2022/11/17 12:35:34;;;;;;;;;;;17.80;92.20;;;;;;5113965;28;19911;-49
2022/11/17 12:38:21;;;;;;;;;;;17.70;92.20;;;;;;5113895;28;19914;-48
2022/11/17 12:40:50;;;;;;;;;;;17.70;92.20;;;;;;5114105;28;19916;-47
2022/11/17 12:43:18;;;;;;;;;;;17.70;92.20;;;;;;5114246;28;19912;-47
2022/11/17 12:45:52;;;;;;;;;;;17.70;92.20;;;;;;5114167;28;19937;-48
2022/11/17 12:48:19;;;;;;;;;;;17.70;92.20;;;;;;5113982;28;19915;-47
2022/11/17 12:50:52;;;;;;;;;;;17.70;92.20;;;;;;5113742;28;19907;-47
2022/11/17 12:53:25;;;;;;;;;;;17.60;92.20;;;;;;5095860;28;20219;-47
2022/11/17 12:56:09;;;;;;;;;;;17.60;92.20;;;;;;5113974;28;19908;-48
2022/11/17 12:58:47;;;;;;;;;;;17.60;92.20;;;;;;5118145;28;19912;-46
2022/11/17 13:01:12;;;;;;;;;;;17.60;92.20;;;;;;5117793;28;19911;-47
2022/11/17 13:03:42;;;;;;;;;;;17.60;92.20;;;;;;5117845;28;20001;-48
2022/11/17 13:06:13;;;;;;;;;;;17.60;92.30;;;;;;5117803;28;19959;-47
2022/11/17 13:08:39;;;;;;;;;;;17.60;92.30;;;;;;5117948;28;19945;-50
2022/11/17 13:11:13;;;;;;;;;;;17.60;92.20;;;;;;5117771;28;19907;-47
2022/11/17 13:13:40;;;;;;;;;;;17.60;92.30;;;;;;5117889;28;20270;-47
2022/11/17 13:16:15;;;;;;;;;;;17.60;92.30;;;;;;5099446;28;19908;-45
2022/11/17 13:18:41;;;;;;;;;;;17.50;92.20;;;;;;5099534;28;19970;-48
2022/11/17 13:21:25;;;;;;;;;;;17.60;92.30;;;;;;5117243;28;19912;-48
2022/11/17 13:23:52;;;;;;;;;;;17.60;92.30;;;;;;5117440;28;19973;-45
2022/11/17 13:26:22;;;;;;;;;;;17.50;92.30;;;;;;5117694;28;20031;-47
2022/11/17 13:29:00;;;;;;;;;;;17.50;92.30;;;;;;5117677;28;19908;-48
2022/11/17 13:31:26;;;;;;;;;;;17.50;92.30;;;;;;5117402;28;20004;-46
2022/11/17 13:34:06;;;;;;;;;;;17.50;92.30;;;;;;5117703;28;19959;-48
2022/11/17 13:36:32;;;;;;;;;;;17.50;92.30;;;;;;5117388;28;20399;-46
2022/11/17 13:39:00;;;;;;;;;;;17.50;92.30;;;;;;5117716;28;19908;-49
2022/11/17 13:41:28;;;;;;;;;;;17.40;92.30;;;;;;5117298;28;20010;-46
2022/11/17 13:43:53;;;;;;;;;;;17.50;92.40;;;;;;5117153;28;19915;-46
2022/11/17 13:46:19;;;;;;;;;;;17.40;92.30;;;;;;5117333;28;19969;-47
2022/11/17 13:48:45;;;;;;;;;;;17.50;92.30;;;;;;5116521;28;20004;-50
2022/11/17 13:51:21;;;;;;;;;;;17.40;92.30;;;;;;5117066;28;20262;-45
2022/11/17 13:53:49;;;;;;;;;;;17.40;92.30;;;;;;5116800;28;19998;-48
2022/11/17 13:56:27;;;;;;;;;;;17.40;92.30;;;;;;5116590;28;19908;-46
2022/11/17 13:58:52;;;;;;;;;;;17.40;92.40;;;;;;5117116;28;20270;-46
2022/11/17 14:01:22;;;;;;;;;;;17.40;92.40;;;;;;5116623;28;19912;-45
2022/11/17 14:03:48;;;;;;;;;;;17.40;92.30;;;;;;5098534;28;19911;-47
2022/11/17 14:06:14;;;;;;;;;;;17.40;92.30;;;;;;5116863;28;19915;-47
2022/11/17 14:08:41;;;;;;;;;;;17.40;92.30;;;;;;5115594;28;19920;-47
2022/11/17 14:11:09;;;;;;;;;;;17.40;92.30;;;;;;5116641;28;19908;-47
2022/11/17 14:13:41;;;;;;;;;;;17.40;92.30;;;;;;5116277;28;19916;-45
2022/11/17 14:16:19;;;;;;;;;;;17.40;92.30;;;;;;5098094;28;20325;-46
2022/11/17 14:18:53;;;;;;;;;;;17.40;92.20;;;;;;5098204;28;19908;-44
2022/11/17 14:21:19;;;;;;;;;;;17.40;92.20;;;;;;5116689;28;20342;-47
2022/11/17 14:23:44;;;;;;;;;;;17.40;92.20;;;;;;5116674;28;19912;-45
2022/11/17 14:26:20;;;;;;;;;;;17.40;92.20;;;;;;5116448;28;20014;-45
2022/11/17 14:28:46;;;;;;;;;;;17.40;92.20;;;;;;5116328;28;19908;-46
2022/11/17 14:31:12;;;;;;;;;;;17.40;92.20;;;;;;5116452;28;20368;-48
2022/11/17 14:33:38;;;;;;;;;;;17.30;92.20;;;;;;5115998;28;20007;-46
2022/11/17 14:36:04;;;;;;;;;;;17.30;92.20;;;;;;5115898;28;19965;-49
2022/11/17 14:38:30;;;;;;;;;;;17.30;92.20;;;;;;5116220;28;19952;-44
2022/11/17 14:40:56;;;;;;;;;;;17.40;92.20;;;;;;5115976;28;19951;-50
2022/11/17 14:43:21;;;;;;;;;;;17.40;92.20;;;;;;5115811;28;19918;-48
2022/11/17 14:45:48;;;;;;;;;;;17.30;92.20;;;;;;5116034;28;19908;-45
2022/11/17 14:48:13;;;;;;;;;;;17.30;92.30;;;;;;5115463;28;19912;-46
2022/11/17 14:50:39;;;;;;;;;;;17.30;92.30;;;;;;5115619;28;19908;-46
2022/11/17 14:53:04;;;;;;;;;;;17.30;92.20;;;;;;5116088;28;20346;-45